sensor_id;sensor_type;location;lat;lon;timestamp;P1;durP1;ratioP1;P2;durP2;ratioP2
19554;SDS011;9924;50.828;6.440;2022-09-09T00:02:45;3.55;;;0.80;;
19554;SDS011;9924;50.828;6.440;2022-09-09T00:05:20;1.25;;;0.68;;
19554;SDS011;9924;50.828;6.440;2022-09-09T00:07:54;3.22;;;0.73;;
19554;SDS011;9924;50.828;6.440;2022-09-09T00:10:26;2.38;;;0.75;;
19554;SDS011;9924;50.828;6.440;2022-09-09T00:18:51;3.25;;;0.70;;
19554;SDS011;9924;50.828;6.440;2022-09-09T00:21:19;1.38;;;0.57;;
19554;SDS011;9924;50.828;6.440;2022-09-09T00:23:57;1.20;;;0.50;;
19554;SDS011;9924;50.828;6.440;2022-09-09T00:28:58;1.65;;;0.70;;
19554;SDS011;9924;50.828;6.440;2022-09-09T00:31:28;2.72;;;0.50;;
19554;SDS011;9924;50.828;6.440;2022-09-09T00:36:48;1.45;;;0.50;;
19554;SDS011;9924;50.828;6.440;2022-09-09T00:42:14;1.50;;;0.70;;
19554;SDS011;9924;50.828;6.440;2022-09-09T00:50:05;2.35;;;0.52;;
19554;SDS011;9924;50.828;6.440;2022-09-09T00:55:33;1.67;;;0.80;;
19554;SDS011;9924;50.828;6.440;2022-09-09T00:58:27;1.38;;;0.60;;
19554;SDS011;9924;50.828;6.440;2022-09-09T01:01:05;3.50;;;0.77;;
19554;SDS011;9924;50.828;6.440;2022-09-09T01:03:47;1.58;;;0.73;;
19554;SDS011;9924;50.828;6.440;2022-09-09T01:06:23;2.50;;;0.60;;
19554;SDS011;9924;50.828;6.440;2022-09-09T01:09:04;2.90;;;0.63;;
19554;SDS011;9924;50.828;6.440;2022-09-09T01:17:10;3.92;;;1.05;;
19554;SDS011;9924;50.828;6.440;2022-09-09T01:22:50;2.88;;;0.80;;
19554;SDS011;9924;50.828;6.440;2022-09-09T01:27:51;3.50;;;1.00;;
19554;SDS011;9924;50.828;6.440;2022-09-09T01:30:20;3.65;;;0.85;;
19554;SDS011;9924;50.828;6.440;2022-09-09T01:32:47;4.70;;;0.95;;
19554;SDS011;9924;50.828;6.440;2022-09-09T01:35:20;1.58;;;0.85;;
19554;SDS011;9924;50.828;6.440;2022-09-09T01:37:48;3.25;;;0.80;;
19554;SDS011;9924;50.828;6.440;2022-09-09T01:40:14;4.97;;;0.98;;
19554;SDS011;9924;50.828;6.440;2022-09-09T01:42:40;5.10;;;0.80;;
19554;SDS011;9924;50.828;6.440;2022-09-09T01:45:06;1.42;;;0.73;;
19554;SDS011;9924;50.828;6.440;2022-09-09T01:47:32;6.25;;;1.25;;
19554;SDS011;9924;50.828;6.440;2022-09-09T01:49:58;3.15;;;1.00;;
19554;SDS011;9924;50.828;6.440;2022-09-09T01:52:25;4.60;;;0.95;;
19554;SDS011;9924;50.828;6.440;2022-09-09T01:54:51;4.70;;;0.90;;
19554;SDS011;9924;50.828;6.440;2022-09-09T01:57:27;3.67;;;1.10;;
19554;SDS011;9924;50.828;6.440;2022-09-09T02:00:05;2.63;;;1.00;;
19554;SDS011;9924;50.828;6.440;2022-09-09T02:03:00;3.70;;;1.02;;
19554;SDS011;9924;50.828;6.440;2022-09-09T02:08:45;3.05;;;0.95;;
19554;SDS011;9924;50.828;6.440;2022-09-09T02:11:15;4.47;;;1.17;;
19554;SDS011;9924;50.828;6.440;2022-09-09T02:13:49;4.32;;;1.10;;
19554;SDS011;9924;50.828;6.440;2022-09-09T02:16:33;3.95;;;1.30;;
19554;SDS011;9924;50.828;6.440;2022-09-09T02:21:38;4.28;;;1.33;;
19554;SDS011;9924;50.828;6.440;2022-09-09T02:24:07;5.07;;;1.30;;
19554;SDS011;9924;50.828;6.440;2022-09-09T02:26:40;7.35;;;1.50;;
19554;SDS011;9924;50.828;6.440;2022-09-09T02:29:13;4.25;;;1.15;;
19554;SDS011;9924;50.828;6.440;2022-09-09T02:31:42;3.88;;;1.30;;
19554;SDS011;9924;50.828;6.440;2022-09-09T02:34:11;6.65;;;1.35;;
19554;SDS011;9924;50.828;6.440;2022-09-09T02:36:40;6.13;;;1.48;;
19554;SDS011;9924;50.828;6.440;2022-09-09T02:39:08;7.10;;;1.20;;
19554;SDS011;9924;50.828;6.440;2022-09-09T02:41:36;4.20;;;1.13;;
19554;SDS011;9924;50.828;6.440;2022-09-09T02:44:05;7.47;;;1.48;;
19554;SDS011;9924;50.828;6.440;2022-09-09T02:52:53;3.13;;;1.23;;
19554;SDS011;9924;50.828;6.440;2022-09-09T02:55:39;6.32;;;1.58;;
19554;SDS011;9924;50.828;6.440;2022-09-09T02:58:05;4.00;;;1.23;;
19554;SDS011;9924;50.828;6.440;2022-09-09T03:00:35;4.93;;;1.10;;
19554;SDS011;9924;50.828;6.440;2022-09-09T03:03:04;9.90;;;1.42;;
19554;SDS011;9924;50.828;6.440;2022-09-09T03:05:31;2.92;;;1.35;;
19554;SDS011;9924;50.828;6.440;2022-09-09T03:07:57;2.72;;;1.30;;
19554;SDS011;9924;50.828;6.440;2022-09-09T03:10:23;5.30;;;1.38;;
19554;SDS011;9924;50.828;6.440;2022-09-09T03:12:49;2.88;;;1.40;;
19554;SDS011;9924;50.828;6.440;2022-09-09T03:15:15;4.60;;;1.00;;
19554;SDS011;9924;50.828;6.440;2022-09-09T03:17:41;7.00;;;1.45;;
19554;SDS011;9924;50.828;6.440;2022-09-09T03:20:07;3.17;;;1.08;;
19554;SDS011;9924;50.828;6.440;2022-09-09T03:22:33;5.20;;;1.52;;
19554;SDS011;9924;50.828;6.440;2022-09-09T03:24:59;5.05;;;2.05;;
19554;SDS011;9924;50.828;6.440;2022-09-09T03:27:27;8.50;;;2.00;;
19554;SDS011;9924;50.828;6.440;2022-09-09T03:29:54;3.08;;;1.25;;
19554;SDS011;9924;50.828;6.440;2022-09-09T03:32:21;6.60;;;1.92;;
19554;SDS011;9924;50.828;6.440;2022-09-09T03:34:47;6.40;;;1.58;;
19554;SDS011;9924;50.828;6.440;2022-09-09T03:37:15;6.25;;;1.58;;
19554;SDS011;9924;50.828;6.440;2022-09-09T03:39:42;4.75;;;1.42;;
19554;SDS011;9924;50.828;6.440;2022-09-09T03:42:08;7.50;;;1.63;;
19554;SDS011;9924;50.828;6.440;2022-09-09T03:44:35;8.00;;;1.92;;
19554;SDS011;9924;50.828;6.440;2022-09-09T03:47:01;3.58;;;1.23;;
19554;SDS011;9924;50.828;6.440;2022-09-09T03:49:26;5.18;;;1.40;;
19554;SDS011;9924;50.828;6.440;2022-09-09T03:51:54;4.90;;;1.45;;
19554;SDS011;9924;50.828;6.440;2022-09-09T03:54:22;4.38;;;1.50;;
19554;SDS011;9924;50.828;6.440;2022-09-09T03:56:48;3.75;;;1.60;;
19554;SDS011;9924;50.828;6.440;2022-09-09T03:59:14;5.53;;;1.20;;
19554;SDS011;9924;50.828;6.440;2022-09-09T04:01:39;7.50;;;1.58;;
19554;SDS011;9924;50.828;6.440;2022-09-09T04:04:05;5.78;;;1.38;;
19554;SDS011;9924;50.828;6.440;2022-09-09T04:06:31;5.30;;;1.30;;
19554;SDS011;9924;50.828;6.440;2022-09-09T04:08:56;4.18;;;1.17;;
19554;SDS011;9924;50.828;6.440;2022-09-09T04:11:27;2.38;;;1.15;;
19554;SDS011;9924;50.828;6.440;2022-09-09T04:13:53;5.38;;;1.60;;
19554;SDS011;9924;50.828;6.440;2022-09-09T04:16:19;8.18;;;1.73;;
19554;SDS011;9924;50.828;6.440;2022-09-09T04:18:45;4.55;;;1.60;;
19554;SDS011;9924;50.828;6.440;2022-09-09T04:21:11;5.35;;;1.38;;
19554;SDS011;9924;50.828;6.440;2022-09-09T04:23:37;4.88;;;1.58;;
19554;SDS011;9924;50.828;6.440;2022-09-09T04:26:03;9.48;;;1.70;;
19554;SDS011;9924;50.828;6.440;2022-09-09T04:28:31;5.15;;;1.90;;
19554;SDS011;9924;50.828;6.440;2022-09-09T04:31:09;6.65;;;1.52;;
19554;SDS011;9924;50.828;6.440;2022-09-09T04:33:39;3.92;;;1.40;;
19554;SDS011;9924;50.828;6.440;2022-09-09T04:36:05;3.25;;;1.27;;
19554;SDS011;9924;50.828;6.440;2022-09-09T04:38:32;6.63;;;1.58;;
19554;SDS011;9924;50.828;6.440;2022-09-09T04:40:57;7.88;;;1.40;;
19554;SDS011;9924;50.828;6.440;2022-09-09T04:43:23;6.20;;;1.30;;
19554;SDS011;9924;50.828;6.440;2022-09-09T04:45:51;3.33;;;1.30;;
19554;SDS011;9924;50.828;6.440;2022-09-09T04:48:17;4.10;;;1.40;;
19554;SDS011;9924;50.828;6.440;2022-09-09T04:50:43;5.35;;;1.35;;
19554;SDS011;9924;50.828;6.440;2022-09-09T04:53:09;3.92;;;1.60;;
19554;SDS011;9924;50.828;6.440;2022-09-09T04:55:35;4.22;;;1.33;;
19554;SDS011;9924;50.828;6.440;2022-09-09T04:58:04;5.38;;;1.20;;
19554;SDS011;9924;50.828;6.440;2022-09-09T05:00:31;9.60;;;1.40;;
19554;SDS011;9924;50.828;6.440;2022-09-09T05:02:58;9.40;;;2.17;;
19554;SDS011;9924;50.828;6.440;2022-09-09T05:05:29;6.68;;;1.50;;
19554;SDS011;9924;50.828;6.440;2022-09-09T05:08:00;6.75;;;2.00;;
19554;SDS011;9924;50.828;6.440;2022-09-09T05:10:27;6.85;;;1.40;;
19554;SDS011;9924;50.828;6.440;2022-09-09T05:12:53;8.13;;;1.30;;
19554;SDS011;9924;50.828;6.440;2022-09-09T05:15:19;3.60;;;1.30;;
19554;SDS011;9924;50.828;6.440;2022-09-09T05:17:46;9.95;;;1.40;;
19554;SDS011;9924;50.828;6.440;2022-09-09T05:20:12;5.43;;;1.20;;
19554;SDS011;9924;50.828;6.440;2022-09-09T05:22:37;9.35;;;1.77;;
19554;SDS011;9924;50.828;6.440;2022-09-09T05:25:04;5.78;;;1.70;;
19554;SDS011;9924;50.828;6.440;2022-09-09T05:27:30;5.13;;;1.33;;
19554;SDS011;9924;50.828;6.440;2022-09-09T05:29:56;7.60;;;1.65;;
19554;SDS011;9924;50.828;6.440;2022-09-09T05:32:23;5.07;;;1.50;;
19554;SDS011;9924;50.828;6.440;2022-09-09T05:34:49;9.13;;;2.03;;
19554;SDS011;9924;50.828;6.440;2022-09-09T05:37:17;7.95;;;2.00;;
19554;SDS011;9924;50.828;6.440;2022-09-09T05:39:43;6.22;;;1.30;;
19554;SDS011;9924;50.828;6.440;2022-09-09T05:42:09;2.70;;;1.30;;
19554;SDS011;9924;50.828;6.440;2022-09-09T05:44:35;6.60;;;1.35;;
19554;SDS011;9924;50.828;6.440;2022-09-09T05:47:00;5.32;;;1.30;;
19554;SDS011;9924;50.828;6.440;2022-09-09T05:49:26;6.07;;;1.13;;
19554;SDS011;9924;50.828;6.440;2022-09-09T05:51:52;3.38;;;1.42;;
19554;SDS011;9924;50.828;6.440;2022-09-09T05:54:18;3.65;;;1.55;;
19554;SDS011;9924;50.828;6.440;2022-09-09T05:56:44;2.88;;;1.30;;
19554;SDS011;9924;50.828;6.440;2022-09-09T05:59:11;6.18;;;1.50;;
19554;SDS011;9924;50.828;6.440;2022-09-09T06:01:37;4.47;;;1.08;;
19554;SDS011;9924;50.828;6.440;2022-09-09T06:04:07;5.07;;;1.40;;
19554;SDS011;9924;50.828;6.440;2022-09-09T06:06:37;5.25;;;1.33;;
19554;SDS011;9924;50.828;6.440;2022-09-09T06:09:05;3.15;;;0.88;;
19554;SDS011;9924;50.828;6.440;2022-09-09T06:11:34;4.03;;;1.42;;
19554;SDS011;9924;50.828;6.440;2022-09-09T06:14:02;7.20;;;1.60;;
19554;SDS011;9924;50.828;6.440;2022-09-09T06:16:29;4.85;;;1.30;;
19554;SDS011;9924;50.828;6.440;2022-09-09T06:18:57;5.72;;;1.95;;
19554;SDS011;9924;50.828;6.440;2022-09-09T06:21:27;4.50;;;1.08;;
19554;SDS011;9924;50.828;6.440;2022-09-09T06:23:57;5.82;;;1.20;;
19554;SDS011;9924;50.828;6.440;2022-09-09T06:26:27;5.80;;;1.30;;
19554;SDS011;9924;50.828;6.440;2022-09-09T06:28:58;4.50;;;0.90;;
19554;SDS011;9924;50.828;6.440;2022-09-09T06:31:25;5.97;;;1.48;;
19554;SDS011;9924;50.828;6.440;2022-09-09T06:33:58;4.55;;;1.00;;
19554;SDS011;9924;50.828;6.440;2022-09-09T06:36:25;5.13;;;1.20;;
19554;SDS011;9924;50.828;6.440;2022-09-09T06:38:58;6.40;;;1.02;;
19554;SDS011;9924;50.828;6.440;2022-09-09T06:41:26;4.78;;;1.27;;
19554;SDS011;9924;50.828;6.440;2022-09-09T06:43:53;4.97;;;1.02;;
19554;SDS011;9924;50.828;6.440;2022-09-09T06:46:21;2.97;;;1.13;;
19554;SDS011;9924;50.828;6.440;2022-09-09T06:48:52;4.70;;;1.10;;
19554;SDS011;9924;50.828;6.440;2022-09-09T06:51:21;4.00;;;1.00;;
19554;SDS011;9924;50.828;6.440;2022-09-09T06:53:53;10.18;;;1.50;;
19554;SDS011;9924;50.828;6.440;2022-09-09T06:56:24;5.63;;;1.02;;
19554;SDS011;9924;50.828;6.440;2022-09-09T06:59:02;2.88;;;0.90;;
19554;SDS011;9924;50.828;6.440;2022-09-09T07:01:33;6.97;;;1.00;;
19554;SDS011;9924;50.828;6.440;2022-09-09T07:04:01;4.60;;;1.23;;
19554;SDS011;9924;50.828;6.440;2022-09-09T07:06:33;4.53;;;1.15;;
19554;SDS011;9924;50.828;6.440;2022-09-09T07:09:04;7.63;;;0.90;;
19554;SDS011;9924;50.828;6.440;2022-09-09T07:11:42;2.50;;;1.00;;
19554;SDS011;9924;50.828;6.440;2022-09-09T07:14:11;3.53;;;1.17;;
19554;SDS011;9924;50.828;6.440;2022-09-09T07:16:39;6.80;;;1.10;;
19554;SDS011;9924;50.828;6.440;2022-09-09T07:19:05;3.78;;;1.33;;
19554;SDS011;9924;50.828;6.440;2022-09-09T07:21:31;7.85;;;1.40;;
19554;SDS011;9924;50.828;6.440;2022-09-09T07:23:58;4.43;;;1.25;;
19554;SDS011;9924;50.828;6.440;2022-09-09T07:26:26;5.25;;;1.42;;
19554;SDS011;9924;50.828;6.440;2022-09-09T07:28:54;4.45;;;1.33;;
19554;SDS011;9924;50.828;6.440;2022-09-09T07:34:01;5.65;;;1.20;;
19554;SDS011;9924;50.828;6.440;2022-09-09T07:36:33;6.63;;;1.25;;
19554;SDS011;9924;50.828;6.440;2022-09-09T07:39:10;2.78;;;1.27;;
19554;SDS011;9924;50.828;6.440;2022-09-09T07:41:43;7.65;;;1.30;;
19554;SDS011;9924;50.828;6.440;2022-09-09T07:44:12;8.90;;;1.30;;
19554;SDS011;9924;50.828;6.440;2022-09-09T07:46:40;8.32;;;1.58;;
19554;SDS011;9924;50.828;6.440;2022-09-09T07:49:06;4.70;;;1.52;;
19554;SDS011;9924;50.828;6.440;2022-09-09T07:51:34;4.85;;;0.98;;
19554;SDS011;9924;50.828;6.440;2022-09-09T07:54:03;6.65;;;1.20;;
19554;SDS011;9924;50.828;6.440;2022-09-09T07:56:37;6.53;;;1.00;;
19554;SDS011;9924;50.828;6.440;2022-09-09T07:59:04;6.78;;;1.00;;
19554;SDS011;9924;50.828;6.440;2022-09-09T08:04:03;8.50;;;1.20;;
19554;SDS011;9924;50.828;6.440;2022-09-09T08:06:34;4.47;;;0.82;;
19554;SDS011;9924;50.828;6.440;2022-09-09T08:09:02;3.03;;;0.85;;
19554;SDS011;9924;50.828;6.440;2022-09-09T08:11:28;3.88;;;1.00;;
19554;SDS011;9924;50.828;6.440;2022-09-09T08:13:55;4.43;;;1.10;;
19554;SDS011;9924;50.828;6.440;2022-09-09T08:16:22;4.05;;;1.20;;
19554;SDS011;9924;50.828;6.440;2022-09-09T08:18:51;5.13;;;1.08;;
19554;SDS011;9924;50.828;6.440;2022-09-09T08:21:20;4.95;;;1.10;;
19554;SDS011;9924;50.828;6.440;2022-09-09T08:23:49;2.67;;;0.80;;
19554;SDS011;9924;50.828;6.440;2022-09-09T08:26:27;2.42;;;0.82;;
19554;SDS011;9924;50.828;6.440;2022-09-09T08:28:57;3.38;;;0.90;;
19554;SDS011;9924;50.828;6.440;2022-09-09T08:33:53;5.05;;;1.50;;
19554;SDS011;9924;50.828;6.440;2022-09-09T08:36:21;4.70;;;0.90;;
19554;SDS011;9924;50.828;6.440;2022-09-09T08:38:53;4.97;;;1.02;;
19554;SDS011;9924;50.828;6.440;2022-09-09T08:54:55;3.00;;;0.75;;
19554;SDS011;9924;50.828;6.440;2022-09-09T08:57:27;4.35;;;0.88;;
19554;SDS011;9924;50.828;6.440;2022-09-09T08:59:57;3.85;;;0.75;;
19554;SDS011;9924;50.828;6.440;2022-09-09T09:05:28;3.25;;;0.77;;
19554;SDS011;9924;50.828;6.440;2022-09-09T09:08:22;3.83;;;0.80;;
19554;SDS011;9924;50.828;6.440;2022-09-09T09:10:51;4.03;;;0.63;;
19554;SDS011;9924;50.828;6.440;2022-09-09T09:18:58;4.50;;;0.95;;
19554;SDS011;9924;50.828;6.440;2022-09-09T09:21:29;7.25;;;0.80;;
19554;SDS011;9924;50.828;6.440;2022-09-09T09:24:01;3.60;;;0.98;;
19554;SDS011;9924;50.828;6.440;2022-09-09T09:26:34;5.05;;;1.17;;
19554;SDS011;9924;50.828;6.440;2022-09-09T09:29:03;6.13;;;0.93;;
19554;SDS011;9924;50.828;6.440;2022-09-09T09:31:37;4.22;;;0.68;;
19554;SDS011;9924;50.828;6.440;2022-09-09T09:34:02;2.03;;;0.70;;
19554;SDS011;9924;50.828;6.440;2022-09-09T09:36:39;1.30;;;0.60;;
19554;SDS011;9924;50.828;6.440;2022-09-09T09:39:09;3.28;;;0.93;;
19554;SDS011;9924;50.828;6.440;2022-09-09T09:41:38;3.42;;;1.33;;
19554;SDS011;9924;50.828;6.440;2022-09-09T09:44:06;1.90;;;0.65;;
19554;SDS011;9924;50.828;6.440;2022-09-09T09:46:51;5.28;;;0.73;;
19554;SDS011;9924;50.828;6.440;2022-09-09T09:49:18;2.42;;;0.73;;
19554;SDS011;9924;50.828;6.440;2022-09-09T09:51:44;4.10;;;0.60;;
19554;SDS011;9924;50.828;6.440;2022-09-09T09:56:40;2.22;;;0.70;;
19554;SDS011;9924;50.828;6.440;2022-09-09T10:02:20;2.95;;;0.90;;
19554;SDS011;9924;50.828;6.440;2022-09-09T10:05:00;1.13;;;0.65;;
19554;SDS011;9924;50.828;6.440;2022-09-09T10:07:30;3.17;;;0.50;;
19554;SDS011;9924;50.828;6.440;2022-09-09T10:09:58;2.70;;;0.65;;
19554;SDS011;9924;50.828;6.440;2022-09-09T10:13:08;1.40;;;0.50;;
19554;SDS011;9924;50.828;6.440;2022-09-09T10:18:42;3.75;;;0.68;;
19554;SDS011;9924;50.828;6.440;2022-09-09T10:26:38;1.27;;;0.40;;
19554;SDS011;9924;50.828;6.440;2022-09-09T10:34:28;1.92;;;0.68;;
19554;SDS011;9924;50.828;6.440;2022-09-09T10:37:24;4.40;;;0.80;;
19554;SDS011;9924;50.828;6.440;2022-09-09T10:42:43;3.03;;;0.70;;
19554;SDS011;9924;50.828;6.440;2022-09-09T10:48:31;4.38;;;0.63;;
19554;SDS011;9924;50.828;6.440;2022-09-09T10:52:03;3.65;;;0.63;;
19554;SDS011;9924;50.828;6.440;2022-09-09T10:57:28;1.80;;;0.52;;
19554;SDS011;9924;50.828;6.440;2022-09-09T11:00:05;3.85;;;0.90;;
19554;SDS011;9924;50.828;6.440;2022-09-09T11:02:39;2.88;;;0.70;;
19554;SDS011;9924;50.828;6.440;2022-09-09T11:05:18;2.38;;;0.70;;
19554;SDS011;9924;50.828;6.440;2022-09-09T11:08:15;2.95;;;0.77;;
19554;SDS011;9924;50.828;6.440;2022-09-09T11:13:35;2.15;;;0.80;;
19554;SDS011;9924;50.828;6.440;2022-09-09T11:22:07;2.90;;;0.77;;
19554;SDS011;9924;50.828;6.440;2022-09-09T11:24:59;3.13;;;0.60;;
19554;SDS011;9924;50.828;6.440;2022-09-09T11:27:32;2.65;;;0.73;;
19554;SDS011;9924;50.828;6.440;2022-09-09T11:41:12;5.07;;;0.95;;
19554;SDS011;9924;50.828;6.440;2022-09-09T11:46:07;2.95;;;0.95;;
19554;SDS011;9924;50.828;6.440;2022-09-09T11:48:38;6.25;;;1.00;;
19554;SDS011;9924;50.828;6.440;2022-09-09T11:54:01;1.95;;;0.75;;
19554;SDS011;9924;50.828;6.440;2022-09-09T11:56:30;6.90;;;0.60;;
19554;SDS011;9924;50.828;6.440;2022-09-09T11:59:32;0.98;;;0.40;;
19554;SDS011;9924;50.828;6.440;2022-09-09T12:02:02;6.97;;;0.80;;
19554;SDS011;9924;50.828;6.440;2022-09-09T12:04:41;4.47;;;1.00;;
19554;SDS011;9924;50.828;6.440;2022-09-09T12:07:25;2.00;;;0.70;;
19554;SDS011;9924;50.828;6.440;2022-09-09T12:10:03;3.42;;;0.98;;
19554;SDS011;9924;50.828;6.440;2022-09-09T12:12:45;7.13;;;1.00;;
19554;SDS011;9924;50.828;6.440;2022-09-09T12:17:44;2.97;;;0.90;;
19554;SDS011;9924;50.828;6.440;2022-09-09T12:28:22;3.58;;;0.68;;
19554;SDS011;9924;50.828;6.440;2022-09-09T12:37:44;3.42;;;0.70;;
19554;SDS011;9924;50.828;6.440;2022-09-09T12:39:59;1.90;;;0.70;;
19554;SDS011;9924;50.828;6.440;2022-09-09T12:42:44;4.78;;;0.75;;
19554;SDS011;9924;50.828;6.440;2022-09-09T12:45:17;3.72;;;0.73;;
19554;SDS011;9924;50.828;6.440;2022-09-09T12:47:54;4.20;;;0.73;;
19554;SDS011;9924;50.828;6.440;2022-09-09T12:50:33;3.38;;;0.80;;
19554;SDS011;9924;50.828;6.440;2022-09-09T12:53:35;2.50;;;0.60;;
19554;SDS011;9924;50.828;6.440;2022-09-09T12:56:04;2.00;;;0.60;;
19554;SDS011;9924;50.828;6.440;2022-09-09T12:58:36;1.55;;;0.57;;
19554;SDS011;9924;50.828;6.440;2022-09-09T13:01:04;2.53;;;0.60;;
19554;SDS011;9924;50.828;6.440;2022-09-09T13:03:31;3.70;;;0.93;;
19554;SDS011;9924;50.828;6.440;2022-09-09T13:06:09;2.28;;;0.73;;
19554;SDS011;9924;50.828;6.440;2022-09-09T13:08:38;3.55;;;0.80;;
19554;SDS011;9924;50.828;6.440;2022-09-09T13:11:06;5.10;;;0.80;;
19554;SDS011;9924;50.828;6.440;2022-09-09T13:13:40;2.92;;;0.70;;
19554;SDS011;9924;50.828;6.440;2022-09-09T13:16:30;1.88;;;0.80;;
19554;SDS011;9924;50.828;6.440;2022-09-09T13:19:21;3.95;;;0.75;;
19554;SDS011;9924;50.828;6.440;2022-09-09T13:21:46;1.60;;;0.60;;
19554;SDS011;9924;50.828;6.440;2022-09-09T13:24:32;5.13;;;1.00;;
19554;SDS011;9924;50.828;6.440;2022-09-09T13:27:04;2.92;;;0.80;;
19554;SDS011;9924;50.828;6.440;2022-09-09T13:29:52;2.25;;;0.90;;
19554;SDS011;9924;50.828;6.440;2022-09-09T13:32:20;3.25;;;1.42;;
19554;SDS011;9924;50.828;6.440;2022-09-09T13:34:54;1.83;;;0.75;;
19554;SDS011;9924;50.828;6.440;2022-09-09T13:37:33;4.43;;;1.00;;
19554;SDS011;9924;50.828;6.440;2022-09-09T13:40:02;4.00;;;0.90;;
19554;SDS011;9924;50.828;6.440;2022-09-09T13:42:31;3.13;;;0.70;;
19554;SDS011;9924;50.828;6.440;2022-09-09T13:45:02;4.13;;;0.75;;
19554;SDS011;9924;50.828;6.440;2022-09-09T13:47:35;2.45;;;0.70;;
19554;SDS011;9924;50.828;6.440;2022-09-09T13:52:47;1.80;;;0.50;;
19554;SDS011;9924;50.828;6.440;2022-09-09T13:55:21;2.58;;;0.50;;
19554;SDS011;9924;50.828;6.440;2022-09-09T13:57:52;3.60;;;0.77;;
19554;SDS011;9924;50.828;6.440;2022-09-09T14:00:19;4.28;;;0.60;;
19554;SDS011;9924;50.828;6.440;2022-09-09T14:02:46;3.65;;;0.77;;
19554;SDS011;9924;50.828;6.440;2022-09-09T14:05:15;1.63;;;0.68;;
19554;SDS011;9924;50.828;6.440;2022-09-09T14:07:42;1.55;;;0.50;;
19554;SDS011;9924;50.828;6.440;2022-09-09T14:10:09;2.30;;;0.77;;
19554;SDS011;9924;50.828;6.440;2022-09-09T14:12:36;2.55;;;0.60;;
19554;SDS011;9924;50.828;6.440;2022-09-09T14:15:03;2.78;;;0.63;;
19554;SDS011;9924;50.828;6.440;2022-09-09T14:17:30;2.55;;;0.75;;
19554;SDS011;9924;50.828;6.440;2022-09-09T14:19:57;2.83;;;0.57;;
19554;SDS011;9924;50.828;6.440;2022-09-09T14:22:23;4.00;;;0.80;;
19554;SDS011;9924;50.828;6.440;2022-09-09T14:24:49;1.77;;;0.60;;
19554;SDS011;9924;50.828;6.440;2022-09-09T14:27:16;1.27;;;0.50;;
19554;SDS011;9924;50.828;6.440;2022-09-09T14:29:43;1.58;;;0.70;;
19554;SDS011;9924;50.828;6.440;2022-09-09T14:32:10;4.20;;;0.68;;
19554;SDS011;9924;50.828;6.440;2022-09-09T14:34:36;2.85;;;0.60;;
19554;SDS011;9924;50.828;6.440;2022-09-09T14:37:02;2.80;;;0.70;;
19554;SDS011;9924;50.828;6.440;2022-09-09T14:39:28;3.50;;;0.93;;
19554;SDS011;9924;50.828;6.440;2022-09-09T14:41:54;7.43;;;1.35;;
19554;SDS011;9924;50.828;6.440;2022-09-09T14:44:20;2.40;;;0.90;;
19554;SDS011;9924;50.828;6.440;2022-09-09T14:46:47;6.13;;;1.05;;
19554;SDS011;9924;50.828;6.440;2022-09-09T14:49:15;2.05;;;0.60;;
19554;SDS011;9924;50.828;6.440;2022-09-09T14:51:41;3.20;;;0.80;;
19554;SDS011;9924;50.828;6.440;2022-09-09T14:54:07;2.40;;;0.80;;
19554;SDS011;9924;50.828;6.440;2022-09-09T14:56:33;3.00;;;0.80;;
19554;SDS011;9924;50.828;6.440;2022-09-09T14:59:00;4.90;;;1.00;;
19554;SDS011;9924;50.828;6.440;2022-09-09T15:01:27;2.63;;;0.70;;
19554;SDS011;9924;50.828;6.440;2022-09-09T15:03:55;4.18;;;0.70;;
19554;SDS011;9924;50.828;6.440;2022-09-09T15:06:23;1.55;;;0.70;;
19554;SDS011;9924;50.828;6.440;2022-09-09T15:08:54;1.58;;;0.80;;
19554;SDS011;9924;50.828;6.440;2022-09-09T15:11:23;2.83;;;0.93;;
19554;SDS011;9924;50.828;6.440;2022-09-09T15:13:51;3.67;;;0.93;;
19554;SDS011;9924;50.828;6.440;2022-09-09T15:16:21;4.03;;;1.15;;
19554;SDS011;9924;50.828;6.440;2022-09-09T15:18:50;2.88;;;0.77;;
19554;SDS011;9924;50.828;6.440;2022-09-09T15:21:18;1.88;;;0.60;;
19554;SDS011;9924;50.828;6.440;2022-09-09T15:23:46;2.97;;;0.90;;
19554;SDS011;9924;50.828;6.440;2022-09-09T15:26:16;2.67;;;0.70;;
19554;SDS011;9924;50.828;6.440;2022-09-09T15:28:43;3.58;;;0.70;;
19554;SDS011;9924;50.828;6.440;2022-09-09T15:34:07;1.83;;;0.80;;
19554;SDS011;9924;50.828;6.440;2022-09-09T15:36:42;3.08;;;0.90;;
19554;SDS011;9924;50.828;6.440;2022-09-09T15:39:12;2.97;;;0.60;;
19554;SDS011;9924;50.828;6.440;2022-09-09T15:41:46;3.63;;;0.60;;
19554;SDS011;9924;50.828;6.440;2022-09-09T15:44:13;1.85;;;0.68;;
19554;SDS011;9924;50.828;6.440;2022-09-09T15:46:41;1.85;;;0.75;;
19554;SDS011;9924;50.828;6.440;2022-09-09T15:49:14;4.05;;;1.10;;
19554;SDS011;9924;50.828;6.440;2022-09-09T15:51:46;3.67;;;0.80;;
19554;SDS011;9924;50.828;6.440;2022-09-09T15:54:17;2.38;;;0.70;;
19554;SDS011;9924;50.828;6.440;2022-09-09T15:56:50;1.55;;;0.77;;
19554;SDS011;9924;50.828;6.440;2022-09-09T15:59:19;2.60;;;0.70;;
19554;SDS011;9924;50.828;6.440;2022-09-09T16:01:45;2.58;;;0.85;;
19554;SDS011;9924;50.828;6.440;2022-09-09T16:04:11;2.80;;;0.85;;
19554;SDS011;9924;50.828;6.440;2022-09-09T16:06:37;1.40;;;0.80;;
19554;SDS011;9924;50.828;6.440;2022-09-09T16:09:05;3.17;;;0.70;;
19554;SDS011;9924;50.828;6.440;2022-09-09T16:11:33;2.10;;;0.65;;
19554;SDS011;9924;50.828;6.440;2022-09-09T16:14:04;1.38;;;0.60;;
19554;SDS011;9924;50.828;6.440;2022-09-09T16:16:31;1.58;;;0.50;;
19554;SDS011;9924;50.828;6.440;2022-09-09T16:18:58;1.13;;;0.60;;
19554;SDS011;9924;50.828;6.440;2022-09-09T16:21:31;1.83;;;0.60;;
19554;SDS011;9924;50.828;6.440;2022-09-09T16:24:03;1.13;;;0.57;;
19554;SDS011;9924;50.828;6.440;2022-09-09T16:26:31;2.15;;;0.60;;
19554;SDS011;9924;50.828;6.440;2022-09-09T16:29:02;1.70;;;0.50;;
19554;SDS011;9924;50.828;6.440;2022-09-09T16:31:28;2.03;;;0.50;;
19554;SDS011;9924;50.828;6.440;2022-09-09T16:33:57;2.35;;;0.50;;
19554;SDS011;9924;50.828;6.440;2022-09-09T16:36:24;3.42;;;0.50;;
19554;SDS011;9924;50.828;6.440;2022-09-09T16:38:55;1.73;;;0.40;;
19554;SDS011;9924;50.828;6.440;2022-09-09T16:41:22;3.33;;;0.50;;
19554;SDS011;9924;50.828;6.440;2022-09-09T16:43:59;1.50;;;0.52;;
19554;SDS011;9924;50.828;6.440;2022-09-09T16:46:28;1.08;;;0.60;;
19554;SDS011;9924;50.828;6.440;2022-09-09T16:48:58;1.85;;;0.50;;
19554;SDS011;9924;50.828;6.440;2022-09-09T16:51:27;1.20;;;0.57;;
19554;SDS011;9924;50.828;6.440;2022-09-09T16:53:54;1.65;;;0.50;;
19554;SDS011;9924;50.828;6.440;2022-09-09T16:56:23;1.77;;;0.60;;
19554;SDS011;9924;50.828;6.440;2022-09-09T16:58:51;2.40;;;0.70;;
19554;SDS011;9924;50.828;6.440;2022-09-09T17:01:32;1.25;;;0.60;;
19554;SDS011;9924;50.828;6.440;2022-09-09T17:04:03;2.80;;;0.52;;
19554;SDS011;9924;50.828;6.440;2022-09-09T17:06:30;1.10;;;0.43;;
19554;SDS011;9924;50.828;6.440;2022-09-09T17:09:06;1.42;;;0.63;;
19554;SDS011;9924;50.828;6.440;2022-09-09T17:11:36;1.33;;;0.40;;
19554;SDS011;9924;50.828;6.440;2022-09-09T17:14:03;2.42;;;0.80;;
19554;SDS011;9924;50.828;6.440;2022-09-09T17:16:31;2.50;;;0.80;;
19554;SDS011;9924;50.828;6.440;2022-09-09T17:18:59;1.50;;;0.75;;
19554;SDS011;9924;50.828;6.440;2022-09-09T17:21:27;2.55;;;0.70;;
19554;SDS011;9924;50.828;6.440;2022-09-09T17:23:54;4.07;;;0.90;;
19554;SDS011;9924;50.828;6.440;2022-09-09T17:26:22;2.85;;;0.90;;
19554;SDS011;9924;50.828;6.440;2022-09-09T17:28:51;2.42;;;0.82;;
19554;SDS011;9924;50.828;6.440;2022-09-09T17:31:18;2.72;;;1.23;;
19554;SDS011;9924;50.828;6.440;2022-09-09T17:33:45;3.15;;;0.90;;
19554;SDS011;9924;50.828;6.440;2022-09-09T17:36:14;2.67;;;0.93;;
19554;SDS011;9924;50.828;6.440;2022-09-09T17:38:42;3.83;;;0.85;;
19554;SDS011;9924;50.828;6.440;2022-09-09T17:41:13;3.97;;;1.10;;
19554;SDS011;9924;50.828;6.440;2022-09-09T17:43:42;6.57;;;1.10;;
19554;SDS011;9924;50.828;6.440;2022-09-09T17:46:10;2.25;;;0.80;;
19554;SDS011;9924;50.828;6.440;2022-09-09T17:48:39;1.98;;;1.00;;
19554;SDS011;9924;50.828;6.440;2022-09-09T17:51:09;2.10;;;0.70;;
19554;SDS011;9924;50.828;6.440;2022-09-09T17:53:40;1.98;;;0.80;;